Ana Sayfa
METAR-TAF:

METAR-TAF

Havaalanları :

Hartness State Airport

Springfield, Vermont, Amerika Birleşik Devletleri

Enlem: 43-20-33N, Boylam: 072-31-18W, yükseklik: 175 m

Güncel hava durumu gözlemi

Rapor saat 20:54 UTC de 32 dakika önce yapıldı.
Rüzgar güneybatıdan 5 kt
Sıcaklık 24°C
Nem 61%
Basınç 1004 hPa
Görüş mesafesi: 16.1 km
4900 ft yükseklikte az bulutlu
8000 ft yükseklikte parçalı bulutlu
10000 ft yükseklikte çok bulutlu

METAR: KVSF 202054Z AUTO 23005KT 10SM FEW049 SCT080 OVC100 24/16 A2965 RMK AO2 SLP039 T02390156 56008

Saat: 17:26 (21:26 UTC)


TAF: eksik

4.000'den fazla havaalanı için hava durumu gözlemleri ve tahminleri (METAR ve TAF raporları).

Kullanılabilir istasyonlar harita üzerinde sarı ve kırmızı noktalarla gösterilir.

İstasyonun adını görmek için fareyi noktanın üzerinde gezdirin.

Sonrasında hava gözlem ve tahminlerini görmek için tıklayın.

Haritayı değiştirmek için: yaklaştırmak için siyah artı işaretli yeşil düğmeye ve uzaklaştırmak için de eksi işaretli düğmeye hızla tıklayın; bitişik haritalar için yeşil okları kullanın.


METAR-TAF: